Startpagina
METAR-TAF:

METAR-TAF

Vliegvelden :

Brussels Airport. Zaventem

Brussel, België

breedte: 50-54N, lengte: 004-32E, hoogte: 55 m

Actueel weer

Dit bericht is 42 minuten geleden gemaakt, om 19:20 UTC
Wind 5 kt uit het noordoosten
Temperatuur 13°C
Vochtigheid 62%
Druk 1024 hPa
Zicht 10 km of meer
geen wolken onder 1500 m en geen cumulonimbus

METAR: EBBR 101920Z 05005KT CAVOK 13/06 Q1024 NOSIG

Tijdstip: 22:02 (20:02 UTC)

Verwachting

Dit bericht is 2 uur en het 52 minuten geleden gemaakt, om 17:10 UTC
Verwachting geldig van 10 om 18 UTC tot 11 om 24 UTC
Wind 7 kt uit het oostnoordoosten
Zicht 10 km of meer
geen wolken onder 1500 m en geen cumulonimbus

TAF: EBBR 101710Z 1018/1124 06007KT CAVOK

Waarnemingen en weersverwachtingen van meer dan 4000 vliegvelden (METAR en TAF).

De beschikbare stations zijn de gele en rode punten op de kaart.

Ga met uw muis naar het station om de naam te zien.

Klik dan om waarnemingen en weersverwachtingen te zien.

kaart wijzigen: klik op de groene knoppen met een zwart kruis om in te zoomen, op de groene knop met een streepje om uit te zoomen of op de groene pijlen voor aangrenzende kaarten.


METAR-TAF: